sensor_id;sensor_type;location;lat;lon;timestamp;P1;durP1;ratioP1;P2;durP2;ratioP2
19507;SDS011;40157;42.566;27.526;2023-09-30T00:01:13;12.45;;;5.68;;
19507;SDS011;40157;42.566;27.526;2023-09-30T00:03:14;10.52;;;6.05;;
19507;SDS011;40157;42.566;27.526;2023-09-30T00:05:15;12.40;;;5.60;;
19507;SDS011;40157;42.566;27.526;2023-09-30T00:07:15;9.85;;;5.75;;
19507;SDS011;40157;42.566;27.526;2023-09-30T00:09:16;12.57;;;5.65;;
19507;SDS011;40157;42.566;27.526;2023-09-30T00:11:16;12.05;;;5.65;;
19507;SDS011;40157;42.566;27.526;2023-09-30T00:13:17;11.00;;;5.82;;
19507;SDS011;40157;42.566;27.526;2023-09-30T00:15:17;13.65;;;5.75;;
19507;SDS011;40157;42.566;27.526;2023-09-30T00:17:18;19.25;;;6.53;;
19507;SDS011;40157;42.566;27.526;2023-09-30T00:19:18;15.43;;;5.85;;
19507;SDS011;40157;42.566;27.526;2023-09-30T00:21:19;11.82;;;5.97;;
19507;SDS011;40157;42.566;27.526;2023-09-30T00:23:19;14.18;;;5.75;;
19507;SDS011;40157;42.566;27.526;2023-09-30T00:25:21;9.20;;;5.32;;
19507;SDS011;40157;42.566;27.526;2023-09-30T00:27:22;11.70;;;5.80;;
19507;SDS011;40157;42.566;27.526;2023-09-30T00:29:22;7.38;;;5.13;;
19507;SDS011;40157;42.566;27.526;2023-09-30T00:31:22;12.65;;;5.45;;
19507;SDS011;40157;42.566;27.526;2023-09-30T00:33:23;13.52;;;4.80;;
19507;SDS011;40157;42.566;27.526;2023-09-30T00:35:25;18.45;;;5.80;;
19507;SDS011;40157;42.566;27.526;2023-09-30T00:37:25;11.60;;;5.25;;
19507;SDS011;40157;42.566;27.526;2023-09-30T00:39:26;11.65;;;5.10;;
19507;SDS011;40157;42.566;27.526;2023-09-30T00:41:30;10.98;;;6.00;;
19507;SDS011;40157;42.566;27.526;2023-09-30T00:43:30;10.98;;;5.22;;
19507;SDS011;40157;42.566;27.526;2023-09-30T00:45:31;11.40;;;5.82;;
19507;SDS011;40157;42.566;27.526;2023-09-30T00:47:33;11.68;;;5.57;;
19507;SDS011;40157;42.566;27.526;2023-09-30T00:49:34;15.65;;;5.53;;
19507;SDS011;40157;42.566;27.526;2023-09-30T00:51:35;11.13;;;5.32;;
19507;SDS011;40157;42.566;27.526;2023-09-30T00:53:36;10.07;;;5.25;;
19507;SDS011;40157;42.566;27.526;2023-09-30T00:55:36;14.07;;;5.07;;
19507;SDS011;40157;42.566;27.526;2023-09-30T00:57:37;16.80;;;6.40;;
19507;SDS011;40157;42.566;27.526;2023-09-30T00:59:39;12.70;;;6.00;;
19507;SDS011;40157;42.566;27.526;2023-09-30T01:01:43;12.40;;;5.55;;
19507;SDS011;40157;42.566;27.526;2023-09-30T01:03:47;12.18;;;5.32;;
19507;SDS011;40157;42.566;27.526;2023-09-30T01:05:48;16.10;;;5.47;;
19507;SDS011;40157;42.566;27.526;2023-09-30T01:07:49;9.90;;;5.82;;
19507;SDS011;40157;42.566;27.526;2023-09-30T01:09:50;12.93;;;5.93;;
19507;SDS011;40157;42.566;27.526;2023-09-30T01:11:51;16.58;;;6.28;;
19507;SDS011;40157;42.566;27.526;2023-09-30T01:13:52;13.27;;;5.22;;
19507;SDS011;40157;42.566;27.526;2023-09-30T01:15:52;13.35;;;6.88;;
19507;SDS011;40157;42.566;27.526;2023-09-30T01:17:52;12.57;;;6.20;;
19507;SDS011;40157;42.566;27.526;2023-09-30T01:19:53;13.63;;;6.00;;
19507;SDS011;40157;42.566;27.526;2023-09-30T01:21:53;10.00;;;5.38;;
19507;SDS011;40157;42.566;27.526;2023-09-30T01:23:59;16.00;;;6.20;;
19507;SDS011;40157;42.566;27.526;2023-09-30T01:26:03;12.82;;;6.15;;
19507;SDS011;40157;42.566;27.526;2023-09-30T01:28:12;12.25;;;6.00;;
19507;SDS011;40157;42.566;27.526;2023-09-30T01:30:14;13.80;;;6.07;;
19507;SDS011;40157;42.566;27.526;2023-09-30T01:32:15;16.35;;;5.72;;
19507;SDS011;40157;42.566;27.526;2023-09-30T01:34:16;12.88;;;6.15;;
19507;SDS011;40157;42.566;27.526;2023-09-30T01:36:17;15.60;;;5.70;;
19507;SDS011;40157;42.566;27.526;2023-09-30T01:38:18;10.85;;;5.78;;
19507;SDS011;40157;42.566;27.526;2023-09-30T01:40:18;13.38;;;5.18;;
19507;SDS011;40157;42.566;27.526;2023-09-30T01:42:19;17.13;;;6.22;;
19507;SDS011;40157;42.566;27.526;2023-09-30T01:44:19;13.88;;;5.47;;
19507;SDS011;40157;42.566;27.526;2023-09-30T01:46:20;10.35;;;5.45;;
19507;SDS011;40157;42.566;27.526;2023-09-30T01:48:20;12.13;;;5.53;;
19507;SDS011;40157;42.566;27.526;2023-09-30T01:50:21;15.52;;;5.93;;
19507;SDS011;40157;42.566;27.526;2023-09-30T01:52:21;14.57;;;6.55;;
19507;SDS011;40157;42.566;27.526;2023-09-30T01:54:22;11.45;;;6.40;;
19507;SDS011;40157;42.566;27.526;2023-09-30T01:56:22;10.95;;;6.07;;
19507;SDS011;40157;42.566;27.526;2023-09-30T01:58:22;17.45;;;6.47;;
19507;SDS011;40157;42.566;27.526;2023-09-30T02:00:23;11.27;;;6.38;;
19507;SDS011;40157;42.566;27.526;2023-09-30T02:02:23;17.80;;;6.97;;
19507;SDS011;40157;42.566;27.526;2023-09-30T02:04:24;18.30;;;6.82;;
19507;SDS011;40157;42.566;27.526;2023-09-30T02:06:24;12.25;;;6.65;;
19507;SDS011;40157;42.566;27.526;2023-09-30T02:08:24;19.50;;;6.60;;
19507;SDS011;40157;42.566;27.526;2023-09-30T02:10:25;21.35;;;7.22;;
19507;SDS011;40157;42.566;27.526;2023-09-30T02:12:26;15.32;;;7.28;;
19507;SDS011;40157;42.566;27.526;2023-09-30T02:14:28;14.52;;;6.80;;
19507;SDS011;40157;42.566;27.526;2023-09-30T02:16:28;19.05;;;7.00;;
19507;SDS011;40157;42.566;27.526;2023-09-30T02:18:29;18.20;;;6.93;;
19507;SDS011;40157;42.566;27.526;2023-09-30T02:20:32;16.73;;;7.43;;
19507;SDS011;40157;42.566;27.526;2023-09-30T02:22:32;14.60;;;7.53;;
19507;SDS011;40157;42.566;27.526;2023-09-30T02:24:33;13.02;;;6.90;;
19507;SDS011;40157;42.566;27.526;2023-09-30T02:26:33;22.90;;;7.00;;
19507;SDS011;40157;42.566;27.526;2023-09-30T02:28:34;14.95;;;6.78;;
19507;SDS011;40157;42.566;27.526;2023-09-30T02:30:35;13.55;;;6.63;;
19507;SDS011;40157;42.566;27.526;2023-09-30T02:32:37;15.88;;;6.82;;
19507;SDS011;40157;42.566;27.526;2023-09-30T02:34:46;13.77;;;7.50;;
19507;SDS011;40157;42.566;27.526;2023-09-30T02:36:47;15.50;;;7.43;;
19507;SDS011;40157;42.566;27.526;2023-09-30T02:38:47;16.75;;;7.50;;
19507;SDS011;40157;42.566;27.526;2023-09-30T02:40:48;20.30;;;7.15;;
19507;SDS011;40157;42.566;27.526;2023-09-30T02:42:50;21.67;;;7.53;;
19507;SDS011;40157;42.566;27.526;2023-09-30T02:44:50;16.42;;;7.75;;
19507;SDS011;40157;42.566;27.526;2023-09-30T02:46:50;16.25;;;7.13;;
19507;SDS011;40157;42.566;27.526;2023-09-30T02:48:51;13.35;;;6.88;;
19507;SDS011;40157;42.566;27.526;2023-09-30T02:50:52;18.27;;;7.50;;
19507;SDS011;40157;42.566;27.526;2023-09-30T02:52:52;14.75;;;6.82;;
19507;SDS011;40157;42.566;27.526;2023-09-30T02:54:52;13.77;;;7.82;;
19507;SDS011;40157;42.566;27.526;2023-09-30T02:56:53;19.77;;;7.68;;
19507;SDS011;40157;42.566;27.526;2023-09-30T02:58:54;19.98;;;7.82;;
19507;SDS011;40157;42.566;27.526;2023-09-30T03:00:55;19.23;;;7.72;;
19507;SDS011;40157;42.566;27.526;2023-09-30T03:02:56;16.42;;;7.35;;
19507;SDS011;40157;42.566;27.526;2023-09-30T03:04:56;14.77;;;7.50;;
19507;SDS011;40157;42.566;27.526;2023-09-30T03:06:58;19.33;;;7.07;;
19507;SDS011;40157;42.566;27.526;2023-09-30T03:08:58;14.40;;;7.38;;
19507;SDS011;40157;42.566;27.526;2023-09-30T03:10:59;14.63;;;7.55;;
19507;SDS011;40157;42.566;27.526;2023-09-30T03:12:59;14.35;;;7.55;;
19507;SDS011;40157;42.566;27.526;2023-09-30T03:15:03;28.52;;;7.20;;
19507;SDS011;40157;42.566;27.526;2023-09-30T03:17:04;23.27;;;7.55;;
19507;SDS011;40157;42.566;27.526;2023-09-30T03:19:04;13.32;;;6.95;;
19507;SDS011;40157;42.566;27.526;2023-09-30T03:21:13;16.63;;;7.03;;
19507;SDS011;40157;42.566;27.526;2023-09-30T03:23:14;16.38;;;6.72;;
19507;SDS011;40157;42.566;27.526;2023-09-30T03:25:15;22.40;;;7.05;;
19507;SDS011;40157;42.566;27.526;2023-09-30T03:27:17;17.27;;;6.95;;
19507;SDS011;40157;42.566;27.526;2023-09-30T03:29:18;13.73;;;6.63;;
19507;SDS011;40157;42.566;27.526;2023-09-30T03:31:21;14.07;;;6.57;;
19507;SDS011;40157;42.566;27.526;2023-09-30T03:33:22;14.82;;;6.97;;
19507;SDS011;40157;42.566;27.526;2023-09-30T03:35:23;21.13;;;7.35;;
19507;SDS011;40157;42.566;27.526;2023-09-30T03:37:24;17.52;;;7.15;;
19507;SDS011;40157;42.566;27.526;2023-09-30T03:39:26;15.27;;;7.40;;
19507;SDS011;40157;42.566;27.526;2023-09-30T03:41:27;9.88;;;5.85;;
19507;SDS011;40157;42.566;27.526;2023-09-30T03:43:28;12.43;;;6.95;;
19507;SDS011;40157;42.566;27.526;2023-09-30T03:45:29;11.88;;;6.32;;
19507;SDS011;40157;42.566;27.526;2023-09-30T03:47:31;15.48;;;6.88;;
19507;SDS011;40157;42.566;27.526;2023-09-30T03:49:31;15.32;;;6.25;;
19507;SDS011;40157;42.566;27.526;2023-09-30T03:51:32;11.80;;;6.22;;
19507;SDS011;40157;42.566;27.526;2023-09-30T03:53:32;15.38;;;6.00;;
19507;SDS011;40157;42.566;27.526;2023-09-30T03:55:33;12.73;;;5.70;;
19507;SDS011;40157;42.566;27.526;2023-09-30T03:57:33;17.15;;;5.72;;
19507;SDS011;40157;42.566;27.526;2023-09-30T03:59:34;11.48;;;5.90;;
19507;SDS011;40157;42.566;27.526;2023-09-30T04:01:34;23.48;;;6.28;;
19507;SDS011;40157;42.566;27.526;2023-09-30T04:03:35;11.60;;;5.72;;
19507;SDS011;40157;42.566;27.526;2023-09-30T04:05:37;14.40;;;6.13;;
19507;SDS011;40157;42.566;27.526;2023-09-30T04:07:37;12.27;;;5.70;;
19507;SDS011;40157;42.566;27.526;2023-09-30T04:09:38;15.82;;;6.53;;
19507;SDS011;40157;42.566;27.526;2023-09-30T04:11:38;17.95;;;5.43;;
19507;SDS011;40157;42.566;27.526;2023-09-30T04:13:39;11.73;;;5.60;;
19507;SDS011;40157;42.566;27.526;2023-09-30T04:15:39;9.80;;;5.78;;
19507;SDS011;40157;42.566;27.526;2023-09-30T04:17:40;15.13;;;5.60;;
19507;SDS011;40157;42.566;27.526;2023-09-30T04:19:41;16.52;;;5.22;;
19507;SDS011;40157;42.566;27.526;2023-09-30T04:21:41;11.15;;;5.57;;
19507;SDS011;40157;42.566;27.526;2023-09-30T04:23:43;11.10;;;5.05;;
19507;SDS011;40157;42.566;27.526;2023-09-30T04:25:43;11.98;;;5.20;;
19507;SDS011;40157;42.566;27.526;2023-09-30T04:27:44;16.35;;;5.55;;
19507;SDS011;40157;42.566;27.526;2023-09-30T04:29:47;10.52;;;4.72;;
19507;SDS011;40157;42.566;27.526;2023-09-30T04:31:49;11.73;;;5.55;;
19507;SDS011;40157;42.566;27.526;2023-09-30T04:33:49;12.55;;;4.63;;
19507;SDS011;40157;42.566;27.526;2023-09-30T04:35:53;10.93;;;5.07;;
19507;SDS011;40157;42.566;27.526;2023-09-30T04:37:54;13.57;;;5.00;;
19507;SDS011;40157;42.566;27.526;2023-09-30T04:39:54;20.08;;;4.40;;
19507;SDS011;40157;42.566;27.526;2023-09-30T04:41:54;13.48;;;5.00;;
19507;SDS011;40157;42.566;27.526;2023-09-30T04:43:55;9.55;;;4.65;;
19507;SDS011;40157;42.566;27.526;2023-09-30T04:45:56;9.82;;;4.97;;
19507;SDS011;40157;42.566;27.526;2023-09-30T04:47:57;7.00;;;4.22;;
19507;SDS011;40157;42.566;27.526;2023-09-30T04:49:58;12.15;;;4.50;;
19507;SDS011;40157;42.566;27.526;2023-09-30T04:51:59;7.90;;;4.45;;
19507;SDS011;40157;42.566;27.526;2023-09-30T04:53:59;15.50;;;4.75;;
19507;SDS011;40157;42.566;27.526;2023-09-30T04:56:00;13.93;;;5.13;;
19507;SDS011;40157;42.566;27.526;2023-09-30T04:58:01;13.80;;;4.55;;
19507;SDS011;40157;42.566;27.526;2023-09-30T05:00:01;12.48;;;5.10;;
19507;SDS011;40157;42.566;27.526;2023-09-30T05:02:11;10.95;;;5.18;;
19507;SDS011;40157;42.566;27.526;2023-09-30T05:04:11;15.65;;;5.07;;
19507;SDS011;40157;42.566;27.526;2023-09-30T05:06:11;7.50;;;4.40;;
19507;SDS011;40157;42.566;27.526;2023-09-30T05:08:12;8.68;;;4.38;;
19507;SDS011;40157;42.566;27.526;2023-09-30T05:10:14;8.10;;;4.75;;
19507;SDS011;40157;42.566;27.526;2023-09-30T05:12:16;10.57;;;4.38;;
19507;SDS011;40157;42.566;27.526;2023-09-30T05:14:16;9.88;;;4.55;;
19507;SDS011;40157;42.566;27.526;2023-09-30T05:16:17;10.65;;;5.00;;
19507;SDS011;40157;42.566;27.526;2023-09-30T05:18:18;8.40;;;4.10;;
19507;SDS011;40157;42.566;27.526;2023-09-30T05:20:19;8.52;;;4.68;;
19507;SDS011;40157;42.566;27.526;2023-09-30T05:22:19;10.30;;;4.65;;
19507;SDS011;40157;42.566;27.526;2023-09-30T05:24:23;14.63;;;4.65;;
19507;SDS011;40157;42.566;27.526;2023-09-30T05:26:24;13.18;;;4.68;;
19507;SDS011;40157;42.566;27.526;2023-09-30T05:28:24;14.82;;;4.68;;
19507;SDS011;40157;42.566;27.526;2023-09-30T05:30:25;11.65;;;4.43;;
19507;SDS011;40157;42.566;27.526;2023-09-30T05:32:25;16.42;;;4.70;;
19507;SDS011;40157;42.566;27.526;2023-09-30T05:34:27;7.28;;;4.20;;
19507;SDS011;40157;42.566;27.526;2023-09-30T05:36:28;11.35;;;4.55;;
19507;SDS011;40157;42.566;27.526;2023-09-30T05:38:29;11.63;;;4.18;;
19507;SDS011;40157;42.566;27.526;2023-09-30T05:40:31;20.83;;;5.00;;
19507;SDS011;40157;42.566;27.526;2023-09-30T05:42:32;10.30;;;4.35;;
19507;SDS011;40157;42.566;27.526;2023-09-30T05:44:32;10.73;;;4.93;;
19507;SDS011;40157;42.566;27.526;2023-09-30T05:46:33;8.50;;;4.38;;
19507;SDS011;40157;42.566;27.526;2023-09-30T05:48:33;12.20;;;4.22;;
19507;SDS011;40157;42.566;27.526;2023-09-30T05:50:34;10.00;;;4.80;;
19507;SDS011;40157;42.566;27.526;2023-09-30T05:52:36;8.80;;;4.10;;
19507;SDS011;40157;42.566;27.526;2023-09-30T05:54:37;12.85;;;4.95;;
19507;SDS011;40157;42.566;27.526;2023-09-30T05:56:38;14.35;;;4.78;;
19507;SDS011;40157;42.566;27.526;2023-09-30T05:58:39;11.48;;;4.45;;
19507;SDS011;40157;42.566;27.526;2023-09-30T06:00:40;10.23;;;4.72;;
19507;SDS011;40157;42.566;27.526;2023-09-30T06:02:42;10.73;;;4.65;;
19507;SDS011;40157;42.566;27.526;2023-09-30T06:04:42;14.68;;;4.95;;
19507;SDS011;40157;42.566;27.526;2023-09-30T06:06:43;11.02;;;5.28;;
19507;SDS011;40157;42.566;27.526;2023-09-30T06:08:43;8.90;;;4.97;;
19507;SDS011;40157;42.566;27.526;2023-09-30T06:10:45;9.07;;;4.47;;
19507;SDS011;40157;42.566;27.526;2023-09-30T06:12:46;11.23;;;4.72;;
19507;SDS011;40157;42.566;27.526;2023-09-30T06:14:47;11.10;;;5.38;;
19507;SDS011;40157;42.566;27.526;2023-09-30T06:16:47;13.18;;;4.65;;
19507;SDS011;40157;42.566;27.526;2023-09-30T06:18:48;8.35;;;4.93;;
19507;SDS011;40157;42.566;27.526;2023-09-30T06:20:49;12.02;;;4.93;;
19507;SDS011;40157;42.566;27.526;2023-09-30T06:22:50;13.57;;;4.82;;
19507;SDS011;40157;42.566;27.526;2023-09-30T06:24:51;12.25;;;4.93;;
19507;SDS011;40157;42.566;27.526;2023-09-30T06:26:52;12.93;;;4.90;;
19507;SDS011;40157;42.566;27.526;2023-09-30T06:28:52;15.70;;;4.45;;
19507;SDS011;40157;42.566;27.526;2023-09-30T06:30:54;12.63;;;5.15;;
19507;SDS011;40157;42.566;27.526;2023-09-30T06:32:56;10.43;;;4.50;;
19507;SDS011;40157;42.566;27.526;2023-09-30T06:34:57;13.20;;;5.18;;
19507;SDS011;40157;42.566;27.526;2023-09-30T06:36:58;12.65;;;4.82;;
19507;SDS011;40157;42.566;27.526;2023-09-30T06:38:58;13.32;;;5.10;;
19507;SDS011;40157;42.566;27.526;2023-09-30T06:40:59;17.92;;;5.10;;
19507;SDS011;40157;42.566;27.526;2023-09-30T06:43:00;12.13;;;4.68;;
19507;SDS011;40157;42.566;27.526;2023-09-30T06:45:04;16.77;;;6.15;;
19507;SDS011;40157;42.566;27.526;2023-09-30T06:47:05;10.45;;;5.15;;
19507;SDS011;40157;42.566;27.526;2023-09-30T06:49:06;11.30;;;4.60;;
19507;SDS011;40157;42.566;27.526;2023-09-30T06:51:06;16.85;;;4.78;;
19507;SDS011;40157;42.566;27.526;2023-09-30T06:53:07;10.32;;;5.05;;
19507;SDS011;40157;42.566;27.526;2023-09-30T06:55:09;13.80;;;5.47;;
19507;SDS011;40157;42.566;27.526;2023-09-30T06:57:10;14.55;;;5.43;;
19507;SDS011;40157;42.566;27.526;2023-09-30T06:59:11;9.68;;;5.00;;
19507;SDS011;40157;42.566;27.526;2023-09-30T07:01:14;17.38;;;5.78;;
19507;SDS011;40157;42.566;27.526;2023-09-30T07:03:17;11.57;;;5.50;;
19507;SDS011;40157;42.566;27.526;2023-09-30T07:05:19;12.27;;;5.00;;
19507;SDS011;40157;42.566;27.526;2023-09-30T07:07:19;10.23;;;4.95;;
19507;SDS011;40157;42.566;27.526;2023-09-30T07:09:20;15.55;;;5.07;;
19507;SDS011;40157;42.566;27.526;2023-09-30T07:11:27;10.50;;;5.15;;
19507;SDS011;40157;42.566;27.526;2023-09-30T07:13:33;10.25;;;5.25;;
19507;SDS011;40157;42.566;27.526;2023-09-30T07:15:33;13.15;;;5.45;;
19507;SDS011;40157;42.566;27.526;2023-09-30T07:17:34;16.77;;;5.28;;
19507;SDS011;40157;42.566;27.526;2023-09-30T07:19:34;12.27;;;5.10;;
19507;SDS011;40157;42.566;27.526;2023-09-30T07:21:36;19.50;;;5.20;;
19507;SDS011;40157;42.566;27.526;2023-09-30T07:23:37;11.85;;;5.22;;
19507;SDS011;40157;42.566;27.526;2023-09-30T07:25:38;10.70;;;5.15;;
19507;SDS011;40157;42.566;27.526;2023-09-30T07:27:38;12.20;;;5.18;;
19507;SDS011;40157;42.566;27.526;2023-09-30T07:29:39;13.50;;;5.88;;
19507;SDS011;40157;42.566;27.526;2023-09-30T07:31:39;9.07;;;5.53;;
19507;SDS011;40157;42.566;27.526;2023-09-30T07:33:39;20.27;;;5.90;;
19507;SDS011;40157;42.566;27.526;2023-09-30T07:35:40;11.73;;;6.20;;
19507;SDS011;40157;42.566;27.526;2023-09-30T07:37:40;11.85;;;5.00;;
19507;SDS011;40157;42.566;27.526;2023-09-30T07:39:42;11.88;;;5.28;;
19507;SDS011;40157;42.566;27.526;2023-09-30T07:41:42;10.98;;;5.65;;
19507;SDS011;40157;42.566;27.526;2023-09-30T07:43:43;13.98;;;5.32;;
19507;SDS011;40157;42.566;27.526;2023-09-30T07:45:43;27.75;;;6.05;;
19507;SDS011;40157;42.566;27.526;2023-09-30T07:47:44;21.05;;;6.03;;
19507;SDS011;40157;42.566;27.526;2023-09-30T07:49:46;20.17;;;6.00;;
19507;SDS011;40157;42.566;27.526;2023-09-30T07:51:47;12.98;;;5.10;;
19507;SDS011;40157;42.566;27.526;2023-09-30T07:53:47;22.02;;;6.28;;
19507;SDS011;40157;42.566;27.526;2023-09-30T07:55:47;13.20;;;5.60;;
19507;SDS011;40157;42.566;27.526;2023-09-30T07:57:48;12.02;;;5.68;;
19507;SDS011;40157;42.566;27.526;2023-09-30T07:59:48;12.93;;;5.88;;
19507;SDS011;40157;42.566;27.526;2023-09-30T08:01:49;23.17;;;5.85;;
19507;SDS011;40157;42.566;27.526;2023-09-30T08:03:49;12.85;;;5.50;;
19507;SDS011;40157;42.566;27.526;2023-09-30T08:05:50;14.68;;;4.70;;
19507;SDS011;40157;42.566;27.526;2023-09-30T08:07:50;17.20;;;5.63;;
19507;SDS011;40157;42.566;27.526;2023-09-30T08:09:51;9.93;;;5.50;;
19507;SDS011;40157;42.566;27.526;2023-09-30T08:11:54;19.40;;;5.15;;
19507;SDS011;40157;42.566;27.526;2023-09-30T08:13:56;15.88;;;5.30;;
19507;SDS011;40157;42.566;27.526;2023-09-30T08:15:59;14.38;;;5.10;;
19507;SDS011;40157;42.566;27.526;2023-09-30T08:17:59;16.73;;;5.13;;
19507;SDS011;40157;42.566;27.526;2023-09-30T08:20:01;15.13;;;5.63;;
19507;SDS011;40157;42.566;27.526;2023-09-30T08:22:01;9.65;;;5.10;;
19507;SDS011;40157;42.566;27.526;2023-09-30T08:24:03;9.57;;;4.75;;
19507;SDS011;40157;42.566;27.526;2023-09-30T08:26:03;13.80;;;5.72;;
19507;SDS011;40157;42.566;27.526;2023-09-30T08:28:05;21.88;;;5.13;;
19507;SDS011;40157;42.566;27.526;2023-09-30T08:30:06;12.93;;;5.22;;
19507;SDS011;40157;42.566;27.526;2023-09-30T08:32:07;15.30;;;5.35;;
19507;SDS011;40157;42.566;27.526;2023-09-30T08:34:07;13.80;;;5.50;;
19507;SDS011;40157;42.566;27.526;2023-09-30T08:36:08;13.55;;;5.28;;
19507;SDS011;40157;42.566;27.526;2023-09-30T08:38:09;11.65;;;5.20;;
19507;SDS011;40157;42.566;27.526;2023-09-30T08:40:10;11.48;;;4.97;;
19507;SDS011;40157;42.566;27.526;2023-09-30T08:42:11;15.43;;;5.70;;
19507;SDS011;40157;42.566;27.526;2023-09-30T08:44:12;17.42;;;5.32;;
19507;SDS011;40157;42.566;27.526;2023-09-30T08:46:12;12.95;;;4.97;;
19507;SDS011;40157;42.566;27.526;2023-09-30T08:48:16;16.55;;;5.07;;
19507;SDS011;40157;42.566;27.526;2023-09-30T08:50:17;12.00;;;4.80;;
19507;SDS011;40157;42.566;27.526;2023-09-30T08:52:17;11.02;;;5.00;;
19507;SDS011;40157;42.566;27.526;2023-09-30T08:54:18;13.38;;;6.07;;
19507;SDS011;40157;42.566;27.526;2023-09-30T08:56:19;10.65;;;5.18;;
19507;SDS011;40157;42.566;27.526;2023-09-30T08:58:27;17.38;;;5.47;;
19507;SDS011;40157;42.566;27.526;2023-09-30T09:00:32;15.98;;;5.18;;
19507;SDS011;40157;42.566;27.526;2023-09-30T09:02:36;16.52;;;5.28;;
19507;SDS011;40157;42.566;27.526;2023-09-30T09:04:37;14.48;;;5.85;;
19507;SDS011;40157;42.566;27.526;2023-09-30T09:06:37;9.93;;;5.10;;
19507;SDS011;40157;42.566;27.526;2023-09-30T09:08:38;12.55;;;4.55;;
19507;SDS011;40157;42.566;27.526;2023-09-30T09:10:53;14.15;;;5.80;;
19507;SDS011;40157;42.566;27.526;2023-09-30T09:12:56;15.18;;;5.43;;
19507;SDS011;40157;42.566;27.526;2023-09-30T09:14:58;19.20;;;5.35;;
19507;SDS011;40157;42.566;27.526;2023-09-30T09:16:58;14.77;;;5.30;;
19507;SDS011;40157;42.566;27.526;2023-09-30T09:19:12;8.27;;;5.35;;
19507;SDS011;40157;42.566;27.526;2023-09-30T09:21:18;14.38;;;4.60;;
19507;SDS011;40157;42.566;27.526;2023-09-30T09:23:21;12.45;;;5.35;;
19507;SDS011;40157;42.566;27.526;2023-09-30T09:25:23;15.52;;;5.65;;
19507;SDS011;40157;42.566;27.526;2023-09-30T09:27:24;16.65;;;5.80;;
19507;SDS011;40157;42.566;27.526;2023-09-30T09:29:25;10.57;;;5.20;;
19507;SDS011;40157;42.566;27.526;2023-09-30T09:31:28;11.52;;;4.82;;
19507;SDS011;40157;42.566;27.526;2023-09-30T09:33:36;11.40;;;5.70;;
19507;SDS011;40157;42.566;27.526;2023-09-30T09:35:37;8.80;;;5.05;;
19507;SDS011;40157;42.566;27.526;2023-09-30T09:37:37;15.05;;;5.22;;
19507;SDS011;40157;42.566;27.526;2023-09-30T09:39:38;11.88;;;5.32;;
19507;SDS011;40157;42.566;27.526;2023-09-30T09:41:59;18.35;;;5.30;;
19507;SDS011;40157;42.566;27.526;2023-09-30T09:44:01;11.60;;;5.38;;
19507;SDS011;40157;42.566;27.526;2023-09-30T09:46:02;15.90;;;5.78;;
19507;SDS011;40157;42.566;27.526;2023-09-30T09:48:07;13.23;;;5.38;;
19507;SDS011;40157;42.566;27.526;2023-09-30T09:50:09;9.52;;;5.18;;
19507;SDS011;40157;42.566;27.526;2023-09-30T09:52:10;10.43;;;4.95;;
19507;SDS011;40157;42.566;27.526;2023-09-30T09:54:13;17.75;;;4.95;;
19507;SDS011;40157;42.566;27.526;2023-09-30T09:56:15;16.58;;;5.82;;
19507;SDS011;40157;42.566;27.526;2023-09-30T09:58:17;19.10;;;5.72;;
19507;SDS011;40157;42.566;27.526;2023-09-30T10:00:21;12.95;;;5.32;;
19507;SDS011;40157;42.566;27.526;2023-09-30T10:02:23;15.68;;;5.68;;
19507;SDS011;40157;42.566;27.526;2023-09-30T10:04:25;13.32;;;5.55;;
19507;SDS011;40157;42.566;27.526;2023-09-30T10:06:26;11.85;;;4.88;;
19507;SDS011;40157;42.566;27.526;2023-09-30T10:08:39;15.77;;;5.93;;
19507;SDS011;40157;42.566;27.526;2023-09-30T10:10:42;12.38;;;5.43;;
19507;SDS011;40157;42.566;27.526;2023-09-30T10:12:44;11.00;;;5.60;;
19507;SDS011;40157;42.566;27.526;2023-09-30T10:14:44;14.05;;;5.70;;
19507;SDS011;40157;42.566;27.526;2023-09-30T10:19:06;21.25;;;5.65;;
19507;SDS011;40157;42.566;27.526;2023-09-30T10:21:07;11.27;;;5.32;;
19507;SDS011;40157;42.566;27.526;2023-09-30T10:25:33;10.88;;;5.65;;
19507;SDS011;40157;42.566;27.526;2023-09-30T10:27:35;9.90;;;5.22;;
19507;SDS011;40157;42.566;27.526;2023-09-30T10:29:40;18.85;;;5.22;;
19507;SDS011;40157;42.566;27.526;2023-09-30T10:31:50;11.00;;;4.82;;
19507;SDS011;40157;42.566;27.526;2023-09-30T10:36:00;21.50;;;6.05;;
19507;SDS011;40157;42.566;27.526;2023-09-30T10:40:28;15.45;;;5.32;;
19507;SDS011;40157;42.566;27.526;2023-09-30T10:42:45;13.02;;;5.10;;
19507;SDS011;40157;42.566;27.526;2023-09-30T10:44:46;10.30;;;4.72;;
19507;SDS011;40157;42.566;27.526;2023-09-30T10:46:47;14.68;;;5.05;;
19507;SDS011;40157;42.566;27.526;2023-09-30T10:49:03;23.45;;;5.07;;
19507;SDS011;40157;42.566;27.526;2023-09-30T10:51:17;14.13;;;5.35;;
19507;SDS011;40157;42.566;27.526;2023-09-30T10:53:21;9.93;;;5.00;;
19507;SDS011;40157;42.566;27.526;2023-09-30T10:55:22;9.75;;;4.72;;
19507;SDS011;40157;42.566;27.526;2023-09-30T10:57:26;17.35;;;4.72;;
19507;SDS011;40157;42.566;27.526;2023-09-30T10:59:31;12.13;;;5.07;;
19507;SDS011;40157;42.566;27.526;2023-09-30T11:01:32;12.68;;;4.72;;
19507;SDS011;40157;42.566;27.526;2023-09-30T11:03:34;11.05;;;5.18;;
19507;SDS011;40157;42.566;27.526;2023-09-30T11:05:34;20.00;;;5.63;;
19507;SDS011;40157;42.566;27.526;2023-09-30T11:07:35;9.30;;;5.03;;
19507;SDS011;40157;42.566;27.526;2023-09-30T11:09:39;10.32;;;4.90;;
19507;SDS011;40157;42.566;27.526;2023-09-30T11:13:48;10.82;;;4.80;;
19507;SDS011;40157;42.566;27.526;2023-09-30T11:15:59;11.82;;;5.13;;
19507;SDS011;40157;42.566;27.526;2023-09-30T11:18:17;21.95;;;6.43;;
19507;SDS011;40157;42.566;27.526;2023-09-30T11:20:18;11.68;;;4.75;;
19507;SDS011;40157;42.566;27.526;2023-09-30T11:22:18;15.98;;;4.97;;
19507;SDS011;40157;42.566;27.526;2023-09-30T11:24:19;13.60;;;4.55;;
19507;SDS011;40157;42.566;27.526;2023-09-30T11:26:41;16.65;;;5.07;;
19507;SDS011;40157;42.566;27.526;2023-09-30T11:28:44;10.60;;;4.93;;
19507;SDS011;40157;42.566;27.526;2023-09-30T11:30:57;12.73;;;5.00;;
19507;SDS011;40157;42.566;27.526;2023-09-30T11:32:59;27.45;;;6.03;;
19507;SDS011;40157;42.566;27.526;2023-09-30T11:35:02;10.95;;;5.20;;
19507;SDS011;40157;42.566;27.526;2023-09-30T11:37:03;17.23;;;5.03;;
19507;SDS011;40157;42.566;27.526;2023-09-30T11:39:05;11.75;;;4.90;;
19507;SDS011;40157;42.566;27.526;2023-09-30T11:41:09;11.05;;;5.20;;
19507;SDS011;40157;42.566;27.526;2023-09-30T11:43:10;14.63;;;4.95;;
19507;SDS011;40157;42.566;27.526;2023-09-30T11:45:21;11.38;;;5.20;;
19507;SDS011;40157;42.566;27.526;2023-09-30T11:47:28;16.17;;;5.63;;
19507;SDS011;40157;42.566;27.526;2023-09-30T11:51:44;11.30;;;5.03;;
19507;SDS011;40157;42.566;27.526;2023-09-30T11:53:46;18.30;;;5.75;;
19507;SDS011;40157;42.566;27.526;2023-09-30T11:55:49;11.70;;;6.07;;
19507;SDS011;40157;42.566;27.526;2023-09-30T11:57:49;19.25;;;6.55;;
19507;SDS011;40157;42.566;27.526;2023-09-30T11:59:51;15.75;;;5.95;;
19507;SDS011;40157;42.566;27.526;2023-09-30T12:01:52;14.52;;;5.78;;
19507;SDS011;40157;42.566;27.526;2023-09-30T12:03:53;23.73;;;6.70;;
19507;SDS011;40157;42.566;27.526;2023-09-30T12:05:57;14.50;;;5.95;;
19507;SDS011;40157;42.566;27.526;2023-09-30T12:07:57;14.45;;;6.03;;